createdAt,value
2023-03-30T00:00:46.396Z,10.33
2023-03-30T00:03:12.955Z,10.15
2023-03-30T00:05:39.973Z,10.15
2023-03-30T00:08:06.379Z,10.11
2023-03-30T00:10:32.711Z,10.15
2023-03-30T00:12:59.029Z,10.12
2023-03-30T00:15:25.835Z,10.24
2023-03-30T00:17:54.882Z,10.23
2023-03-30T00:20:22.151Z,10.16
2023-03-30T00:22:48.528Z,10.01
2023-03-30T00:25:17.235Z,9.96
2023-03-30T00:27:44.014Z,10.04
2023-03-30T00:30:14.417Z,9.95
2023-03-30T00:32:42.679Z,9.98
2023-03-30T00:35:10.604Z,10.03
2023-03-30T00:37:37.319Z,10.18
2023-03-30T00:40:09.931Z,10.16
2023-03-30T00:42:37.352Z,10.10
2023-03-30T00:45:19.485Z,10.01
2023-03-30T00:48:02.995Z,9.91
2023-03-30T00:50:44.539Z,9.79
2023-03-30T00:53:24.483Z,9.85
2023-03-30T00:55:53.570Z,9.60
2023-03-30T00:58:22.378Z,9.60
2023-03-30T01:00:49.327Z,9.67
2023-03-30T01:03:27.617Z,9.53
2023-03-30T01:05:56.837Z,9.61
2023-03-30T01:08:27.099Z,9.57
2023-03-30T01:10:53.744Z,9.62
2023-03-30T01:13:20.657Z,9.66
2023-03-30T01:16:01.176Z,9.51
2023-03-30T01:18:37.318Z,9.61
2023-03-30T01:21:48.821Z,9.46
2023-03-30T01:24:27.612Z,9.60
2023-03-30T01:27:02.140Z,9.73
2023-03-30T01:30:01.407Z,9.72
2023-03-30T01:32:46.600Z,9.64
2023-03-30T01:35:46.046Z,9.57
2023-03-30T01:38:18.474Z,9.66
2023-03-30T01:41:11.579Z,9.81
2023-03-30T01:43:50.949Z,9.78
2023-03-30T01:46:25.101Z,9.75
2023-03-30T01:49:12.281Z,9.76
2023-03-30T01:51:51.024Z,9.81
2023-03-30T01:54:24.135Z,9.77
2023-03-30T01:57:02.419Z,9.72
2023-03-30T01:59:36.523Z,9.73
2023-03-30T02:02:07.048Z,9.75
2023-03-30T02:04:38.686Z,9.90
2023-03-30T02:07:10.431Z,10.22
2023-03-30T02:09:39.841Z,10.50
2023-03-30T02:12:09.149Z,10.72
2023-03-30T02:14:39.269Z,10.94
2023-03-30T02:17:11.861Z,11.11
2023-03-30T02:19:38.279Z,11.19
2023-03-30T02:22:06.212Z,11.28
2023-03-30T02:24:33.517Z,11.39
2023-03-30T02:27:04.311Z,11.43
2023-03-30T02:29:32.002Z,11.50
2023-03-30T02:32:00.615Z,11.63
2023-03-30T02:34:28.874Z,11.70
2023-03-30T02:37:26.545Z,11.74
2023-03-30T02:39:59.017Z,11.79
2023-03-30T02:42:39.274Z,11.83
2023-03-30T02:45:20.738Z,11.85
2023-03-30T02:47:59.581Z,11.83
2023-03-30T02:50:48.364Z,11.82
2023-03-30T02:54:13.214Z,11.80
2023-03-30T02:57:22.634Z,11.75
2023-03-30T03:00:01.976Z,11.72
2023-03-30T03:02:34.331Z,11.67
2023-03-30T03:05:16.480Z,11.72
2023-03-30T03:07:53.496Z,11.73
2023-03-30T03:10:19.883Z,11.78
2023-03-30T03:12:46.739Z,11.93
2023-03-30T03:15:13.860Z,12.03
2023-03-30T03:17:52.639Z,12.04
2023-03-30T03:20:19.872Z,12.09
2023-03-30T03:22:46.325Z,12.02
2023-03-30T03:25:12.767Z,11.98
2023-03-30T03:27:52.395Z,12.05
2023-03-30T03:30:23.683Z,12.08
2023-03-30T03:33:00.719Z,12.01
2023-03-30T03:35:29.855Z,12.07
2023-03-30T03:37:56.172Z,12.02
2023-03-30T03:40:22.933Z,12.02
2023-03-30T03:42:50.609Z,11.94
2023-03-30T03:45:17.217Z,11.95
2023-03-30T03:47:55.828Z,11.90
2023-03-30T03:50:33.628Z,11.91
2023-03-30T03:53:00.233Z,11.86
2023-03-30T03:55:28.443Z,11.88
2023-03-30T03:57:54.770Z,11.98
2023-03-30T04:00:22.611Z,11.96
2023-03-30T04:02:52.239Z,11.95
2023-03-30T04:05:19.075Z,11.94
2023-03-30T04:07:48.264Z,11.91
2023-03-30T04:10:15.379Z,11.98
2023-03-30T04:12:56.678Z,12.03
2023-03-30T04:15:43.001Z,12.00
2023-03-30T04:18:33.275Z,11.95
2023-03-30T04:21:25.116Z,11.95
2023-03-30T04:24:12.108Z,11.95
2023-03-30T04:26:57.568Z,12.02
2023-03-30T04:29:42.058Z,12.07
2023-03-30T04:32:54.634Z,11.98
2023-03-30T04:35:41.349Z,12.02
2023-03-30T04:38:27.957Z,11.90
2023-03-30T04:41:06.553Z,11.89
2023-03-30T04:43:45.736Z,11.91
2023-03-30T04:46:23.711Z,11.87
2023-03-30T04:49:19.792Z,11.87
2023-03-30T04:52:06.516Z,11.89
2023-03-30T04:54:55.854Z,11.88
2023-03-30T04:57:40.895Z,11.94
2023-03-30T05:00:27.507Z,12.00
2023-03-30T05:03:23.013Z,12.02
2023-03-30T05:05:57.865Z,12.03
2023-03-30T05:08:46.527Z,12.00
2023-03-30T05:11:22.987Z,12.07
2023-03-30T05:14:00.253Z,12.05
2023-03-30T05:16:39.055Z,12.03
2023-03-30T05:19:37.742Z,11.99
2023-03-30T05:22:21.000Z,11.99
2023-03-30T05:24:58.363Z,12.00
2023-03-30T05:27:40.279Z,12.00
2023-03-30T05:30:46.578Z,11.94
2023-03-30T05:33:38.857Z,11.92
2023-03-30T05:36:18.381Z,12.06
2023-03-30T05:39:04.880Z,12.05
2023-03-30T05:41:48.930Z,12.10
2023-03-30T05:44:44.756Z,12.09
2023-03-30T05:47:29.648Z,12.10
2023-03-30T05:50:09.144Z,12.26
2023-03-30T05:52:46.772Z,12.31
2023-03-30T05:55:23.621Z,12.32
2023-03-30T05:58:16.789Z,12.32
2023-03-30T06:00:52.439Z,12.38
2023-03-30T06:03:29.571Z,12.47
2023-03-30T06:05:56.446Z,12.49
2023-03-30T06:08:23.105Z,12.49
2023-03-30T06:10:57.255Z,12.50
2023-03-30T06:13:27.163Z,12.49
2023-03-30T06:15:57.376Z,12.52
2023-03-30T06:18:26.339Z,12.49
2023-03-30T06:21:07.154Z,12.48
2023-03-30T06:23:47.145Z,12.48
2023-03-30T06:26:17.874Z,12.43
2023-03-30T06:28:45.235Z,12.57
2023-03-30T06:31:12.334Z,12.55
2023-03-30T06:33:41.923Z,12.50
2023-03-30T06:36:12.224Z,12.49
2023-03-30T06:38:41.042Z,12.51
2023-03-30T06:41:09.888Z,12.45
2023-03-30T06:43:39.493Z,12.58
2023-03-30T06:46:16.201Z,12.52
2023-03-30T06:48:48.325Z,12.45
2023-03-30T06:51:40.495Z,12.52
2023-03-30T06:54:07.849Z,12.47
2023-03-30T06:56:36.168Z,12.43
2023-03-30T06:59:09.281Z,12.43
2023-03-30T07:01:55.609Z,12.44
2023-03-30T07:04:35.576Z,12.53
2023-03-30T07:07:19.717Z,12.53
2023-03-30T07:09:46.506Z,12.53
2023-03-30T07:12:12.924Z,12.57
2023-03-30T07:14:39.600Z,12.58
2023-03-30T07:17:07.629Z,12.60
2023-03-30T07:19:34.160Z,12.64
2023-03-30T07:22:00.895Z,12.70
2023-03-30T07:24:27.732Z,12.75
2023-03-30T07:26:54.179Z,12.75
2023-03-30T07:29:20.711Z,12.71
2023-03-30T07:31:51.549Z,12.81
2023-03-30T07:34:19.593Z,12.85
2023-03-30T07:36:52.450Z,12.85
2023-03-30T07:39:19.315Z,12.81
2023-03-30T07:41:48.049Z,12.82
2023-03-30T07:44:14.684Z,12.78
2023-03-30T07:46:41.291Z,12.75
2023-03-30T07:49:12.830Z,12.76
2023-03-30T07:51:39.536Z,12.74
2023-03-30T07:54:13.142Z,12.80
2023-03-30T07:56:57.180Z,12.80
2023-03-30T07:59:23.865Z,12.82
2023-03-30T08:01:54.442Z,12.85
2023-03-30T08:04:37.526Z,12.79
2023-03-30T08:07:04.526Z,12.87
2023-03-30T08:09:31.294Z,12.90
2023-03-30T08:11:57.744Z,12.95
2023-03-30T08:14:27.159Z,12.95
2023-03-30T08:16:54.164Z,13.11
2023-03-30T08:19:23.373Z,13.28
2023-03-30T08:21:49.755Z,13.37
2023-03-30T08:24:16.097Z,13.53
2023-03-30T08:26:43.370Z,13.79
2023-03-30T08:29:10.609Z,13.99
2023-03-30T08:31:37.457Z,14.18
2023-03-30T08:34:04.468Z,14.22
2023-03-30T08:36:31.500Z,14.07
2023-03-30T08:38:57.974Z,14.01
2023-03-30T08:41:24.224Z,13.97
2023-03-30T08:44:09.449Z,13.89
2023-03-30T08:46:35.914Z,13.84
2023-03-30T08:49:08.067Z,13.77
2023-03-30T08:51:35.847Z,13.77
2023-03-30T08:54:07.139Z,13.71
2023-03-30T08:56:44.430Z,13.70
2023-03-30T08:59:38.527Z,13.71
2023-03-30T09:02:18.932Z,13.73
2023-03-30T09:04:57.132Z,13.80
2023-03-30T09:07:27.263Z,13.84
2023-03-30T09:09:57.152Z,13.85
2023-03-30T09:12:46.099Z,13.89
2023-03-30T09:15:18.130Z,13.87
2023-03-30T09:17:55.784Z,13.92
2023-03-30T09:20:26.026Z,14.00
2023-03-30T09:22:55.819Z,14.08
2023-03-30T09:25:34.379Z,14.09
2023-03-30T09:28:12.191Z,14.05
2023-03-30T09:30:46.947Z,14.08
2023-03-30T09:33:41.840Z,14.21
2023-03-30T09:36:14.177Z,14.24
2023-03-30T09:38:41.913Z,14.36
2023-03-30T09:41:23.468Z,14.58
2023-03-30T09:43:51.430Z,14.45
2023-03-30T09:46:18.129Z,14.64
2023-03-30T09:48:50.404Z,14.80
2023-03-30T09:51:21.587Z,14.93
2023-03-30T09:53:50.056Z,14.96
2023-03-30T09:56:28.629Z,14.91
2023-03-30T09:58:56.027Z,14.78
2023-03-30T10:01:34.305Z,14.96
2023-03-30T10:04:12.230Z,15.23
2023-03-30T10:06:46.915Z,15.61
2023-03-30T10:09:14.068Z,15.71
2023-03-30T10:11:45.617Z,15.66
2023-03-30T10:14:31.480Z,15.84
2023-03-30T10:16:59.267Z,15.70
2023-03-30T10:19:26.739Z,15.58
2023-03-30T10:21:55.550Z,15.42
2023-03-30T10:24:24.829Z,15.28
2023-03-30T10:27:11.950Z,15.28
2023-03-30T10:29:38.416Z,16.13
2023-03-30T10:32:17.093Z,16.53
2023-03-30T10:35:05.225Z,16.87
2023-03-30T10:37:38.344Z,17.50
2023-03-30T10:40:32.412Z,17.55
2023-03-30T10:43:00.625Z,17.19
2023-03-30T10:45:36.149Z,16.73
2023-03-30T10:48:36.607Z,16.54
2023-03-30T10:51:21.647Z,16.23
2023-03-30T10:54:06.862Z,16.24
2023-03-30T10:56:41.132Z,16.93
2023-03-30T10:59:19.997Z,17.56
2023-03-30T11:01:54.988Z,18.19
2023-03-30T11:04:31.660Z,18.67
2023-03-30T11:07:00.956Z,19.14
2023-03-30T11:09:37.792Z,19.46
2023-03-30T11:12:12.345Z,19.65
2023-03-30T11:14:48.876Z,20.01
2023-03-30T11:17:23.455Z,20.05
2023-03-30T11:19:55.540Z,20.17
2023-03-30T11:22:38.238Z,19.84
2023-03-30T11:25:19.539Z,18.66
2023-03-30T11:28:03.094Z,19.27
2023-03-30T11:30:33.782Z,19.66
2023-03-30T11:33:19.064Z,20.06
2023-03-30T11:35:48.183Z,20.18
2023-03-30T11:38:50.363Z,20.62
2023-03-30T11:41:31.767Z,21.01
2023-03-30T11:43:58.103Z,20.98
2023-03-30T11:46:46.181Z,20.08
2023-03-30T11:49:24.455Z,18.84
2023-03-30T11:52:13.319Z,17.86
2023-03-30T11:55:06.958Z,16.98
2023-03-30T11:57:40.154Z,16.63
2023-03-30T12:00:30.972Z,16.36
2023-03-30T12:03:22.472Z,16.28
2023-03-30T12:06:00.013Z,16.06
2023-03-30T12:08:45.184Z,15.62
2023-03-30T12:11:33.148Z,15.44
2023-03-30T12:14:00.744Z,15.71
2023-03-30T12:16:44.983Z,15.43
2023-03-30T12:19:27.890Z,15.40
2023-03-30T12:22:04.140Z,15.52
2023-03-30T12:24:41.953Z,15.92
2023-03-30T12:27:11.596Z,16.70
2023-03-30T12:32:28.800Z,17.76
2023-03-30T12:34:57.788Z,17.83
2023-03-30T12:37:33.291Z,17.08
2023-03-30T12:40:06.623Z,17.31
2023-03-30T12:42:35.240Z,16.92
2023-03-30T12:45:12.578Z,16.34
2023-03-30T12:47:57.853Z,16.29
2023-03-30T12:50:45.320Z,16.04
2023-03-30T12:53:46.372Z,15.75
2023-03-30T12:56:28.864Z,15.48
2023-03-30T12:59:01.049Z,15.21
2023-03-30T13:01:52.245Z,14.89
2023-03-30T13:04:25.349Z,14.64
2023-03-30T13:07:01.917Z,14.74
2023-03-30T13:09:32.132Z,15.25
2023-03-30T13:11:58.886Z,15.60
2023-03-30T13:14:34.058Z,16.08
2023-03-30T13:17:00.673Z,16.51
2023-03-30T13:19:32.977Z,16.63
2023-03-30T13:22:11.424Z,16.41
2023-03-30T13:24:57.905Z,16.19
2023-03-30T13:27:29.577Z,15.96
2023-03-30T13:30:13.824Z,15.98
2023-03-30T13:32:56.286Z,15.75
2023-03-30T13:36:01.366Z,15.62
2023-03-30T13:38:40.240Z,15.65
2023-03-30T13:41:28.072Z,15.33
2023-03-30T13:43:54.320Z,15.24
2023-03-30T13:46:33.197Z,15.04
2023-03-30T13:49:21.668Z,14.90
2023-03-30T13:51:48.969Z,15.19
2023-03-30T13:54:25.407Z,15.33
2023-03-30T13:57:03.846Z,15.62
2023-03-30T13:59:33.161Z,15.75
2023-03-30T14:02:01.358Z,15.78
2023-03-30T14:04:34.406Z,15.74
2023-03-30T14:07:13.853Z,15.82
2023-03-30T14:09:40.481Z,15.74
2023-03-30T14:12:07.679Z,15.66
2023-03-30T14:14:46.289Z,15.65
2023-03-30T14:17:21.680Z,15.62
2023-03-30T14:20:06.376Z,15.45
2023-03-30T14:22:39.765Z,15.38
2023-03-30T14:25:22.937Z,15.40
2023-03-30T14:27:49.319Z,15.40
2023-03-30T14:30:29.045Z,15.45
2023-03-30T14:33:06.959Z,15.38
2023-03-30T14:35:34.433Z,15.37
2023-03-30T14:38:13.781Z,15.37
2023-03-30T14:40:43.755Z,15.22
2023-03-30T14:43:15.940Z,15.33
2023-03-30T14:45:43.029Z,15.21
2023-03-30T14:48:32.058Z,15.21
2023-03-30T14:51:00.852Z,15.30
2023-03-30T14:53:29.165Z,15.22
2023-03-30T14:56:00.126Z,15.24
2023-03-30T14:58:29.795Z,15.22
2023-03-30T15:00:59.624Z,15.20
2023-03-30T15:03:34.558Z,15.15
2023-03-30T15:06:06.699Z,15.16
2023-03-30T15:08:36.829Z,15.10
2023-03-30T15:11:14.613Z,15.10
2023-03-30T15:13:48.495Z,15.02
2023-03-30T15:16:20.762Z,15.07
2023-03-30T15:18:47.701Z,15.07
2023-03-30T15:21:14.764Z,15.01
2023-03-30T15:23:44.638Z,14.97
2023-03-30T15:26:12.357Z,15.03
2023-03-30T15:28:51.023Z,15.11
2023-03-30T15:31:18.970Z,14.98
2023-03-30T15:33:57.908Z,15.19
2023-03-30T15:36:35.218Z,15.15
2023-03-30T15:39:01.676Z,15.11
2023-03-30T15:41:44.595Z,15.12
2023-03-30T15:44:16.475Z,15.10
2023-03-30T15:46:43.675Z,15.11
2023-03-30T15:49:14.571Z,15.06
2023-03-30T15:51:47.352Z,15.07
2023-03-30T15:54:16.819Z,15.06
2023-03-30T15:57:12.898Z,15.09
2023-03-30T15:59:45.151Z,15.05
2023-03-30T16:02:21.198Z,14.96
2023-03-30T16:04:51.405Z,15.06
2023-03-30T16:07:20.642Z,15.04
2023-03-30T16:09:47.684Z,15.00
2023-03-30T16:12:17.492Z,15.00
2023-03-30T16:14:44.043Z,14.96
2023-03-30T16:17:12.951Z,14.94
2023-03-30T16:19:41.026Z,14.96
2023-03-30T16:22:08.551Z,14.92
2023-03-30T16:24:35.984Z,14.90
2023-03-30T16:27:03.787Z,14.85
2023-03-30T16:29:31.249Z,14.86
2023-03-30T16:31:58.669Z,14.78
2023-03-30T16:34:25.868Z,14.77
2023-03-30T16:36:52.756Z,14.70
2023-03-30T16:39:29.778Z,14.74
2023-03-30T16:41:56.856Z,14.63
2023-03-30T16:44:24.967Z,14.55
2023-03-30T16:46:52.402Z,14.59
2023-03-30T16:49:21.998Z,14.55
2023-03-30T16:51:48.700Z,14.53
2023-03-30T16:54:29.563Z,14.51
2023-03-30T16:56:57.512Z,14.43
2023-03-30T16:59:25.925Z,14.45
2023-03-30T17:01:52.599Z,14.34
2023-03-30T17:04:19.423Z,14.33
2023-03-30T17:06:45.795Z,14.20
2023-03-30T17:09:15.238Z,14.23
2023-03-30T17:11:41.536Z,14.21
2023-03-30T17:14:07.850Z,14.17
2023-03-30T17:16:34.855Z,14.19
2023-03-30T17:19:01.261Z,14.16
2023-03-30T17:21:27.633Z,14.10
2023-03-30T17:23:53.960Z,14.14
2023-03-30T17:26:20.927Z,14.08
2023-03-30T17:28:47.688Z,13.96
2023-03-30T17:31:19.948Z,13.92
2023-03-30T17:33:47.699Z,13.93
2023-03-30T17:36:22.785Z,13.92
2023-03-30T17:38:50.469Z,13.88
2023-03-30T17:41:19.228Z,13.87
2023-03-30T17:43:47.706Z,13.86
2023-03-30T17:46:16.784Z,13.85
2023-03-30T17:48:43.336Z,13.83
2023-03-30T17:51:09.676Z,13.66
2023-03-30T17:53:36.869Z,13.73
2023-03-30T17:56:03.222Z,13.75
2023-03-30T17:58:33.874Z,13.75
2023-03-30T18:01:02.304Z,13.64
2023-03-30T18:03:29.409Z,13.69
2023-03-30T18:05:57.607Z,13.66
2023-03-30T18:08:25.129Z,13.76
2023-03-30T18:10:53.639Z,13.72
2023-03-30T18:13:21.432Z,13.75
2023-03-30T18:15:50.083Z,13.69
2023-03-30T18:18:22.562Z,13.56
2023-03-30T18:20:54.097Z,13.65
2023-03-30T18:23:20.816Z,13.59
2023-03-30T18:25:47.932Z,13.52
2023-03-30T18:28:22.979Z,13.64
2023-03-30T18:30:50.945Z,13.49
2023-03-30T18:33:17.401Z,13.40
2023-03-30T18:35:46.382Z,13.45
2023-03-30T18:38:15.241Z,13.43
2023-03-30T18:40:45.294Z,13.29
2023-03-30T18:43:12.749Z,13.33
2023-03-30T18:45:41.522Z,13.37
2023-03-30T18:48:11.286Z,13.31
2023-03-30T18:50:40.125Z,13.39
2023-03-30T18:53:15.363Z,13.30
2023-03-30T18:55:44.923Z,13.24
2023-03-30T18:58:14.488Z,13.25
2023-03-30T19:00:40.826Z,13.22
2023-03-30T19:03:07.356Z,13.15
2023-03-30T19:05:34.916Z,13.05
2023-03-30T19:08:01.908Z,13.02
2023-03-30T19:10:30.980Z,13.13
2023-03-30T19:12:58.019Z,13.13
2023-03-30T19:15:26.218Z,13.12
2023-03-30T19:17:53.165Z,13.10
2023-03-30T19:20:22.507Z,13.01
2023-03-30T19:22:49.642Z,12.99
2023-03-30T19:25:17.839Z,12.83
2023-03-30T19:27:55.388Z,12.78
2023-03-30T19:30:28.369Z,12.79
2023-03-30T19:32:58.153Z,12.83
2023-03-30T19:35:25.584Z,12.83
2023-03-30T19:37:52.766Z,12.81
2023-03-30T19:40:20.355Z,12.76
2023-03-30T19:42:47.731Z,12.66
2023-03-30T19:45:16.512Z,12.71
2023-03-30T19:47:43.572Z,12.77
2023-03-30T19:50:14.927Z,12.77
2023-03-30T19:52:41.807Z,12.70
2023-03-30T19:55:09.357Z,12.74
2023-03-30T19:57:37.107Z,12.71
2023-03-30T20:00:12.107Z,12.57
2023-03-30T20:02:39.971Z,12.69
2023-03-30T20:05:06.697Z,12.43
2023-03-30T20:07:33.067Z,12.13
2023-03-30T20:09:59.392Z,12.06
2023-03-30T20:12:25.696Z,12.08
2023-03-30T20:14:52.103Z,12.17
2023-03-30T20:17:21.698Z,12.29
2023-03-30T20:19:48.074Z,12.26
2023-03-30T20:22:14.389Z,12.37
2023-03-30T20:24:40.755Z,12.19
2023-03-30T20:27:07.155Z,12.00
2023-03-30T20:29:33.476Z,11.89
2023-03-30T20:31:59.865Z,11.80
2023-03-30T20:34:26.997Z,11.88
2023-03-30T20:36:53.323Z,11.70
2023-03-30T20:39:22.096Z,11.67
2023-03-30T20:41:53.804Z,11.47
2023-03-30T20:44:29.742Z,11.58
2023-03-30T20:46:58.039Z,11.68
2023-03-30T20:49:25.576Z,11.73
2023-03-30T20:51:52.977Z,11.69
2023-03-30T20:54:19.806Z,11.48
2023-03-30T20:56:46.172Z,11.72
2023-03-30T20:59:12.566Z,11.82
2023-03-30T21:01:40.660Z,11.99
2023-03-30T21:04:08.139Z,12.02
2023-03-30T21:06:34.803Z,12.06
2023-03-30T21:09:04.676Z,12.15
2023-03-30T21:11:34.485Z,12.18
2023-03-30T21:14:01.946Z,12.24
2023-03-30T21:16:28.862Z,12.23
2023-03-30T21:18:55.299Z,12.36
2023-03-30T21:21:21.695Z,12.41
2023-03-30T21:23:48.566Z,12.30
2023-03-30T21:26:15.713Z,12.31
2023-03-30T21:28:42.015Z,12.29
2023-03-30T21:31:11.177Z,12.32
2023-03-30T21:33:37.739Z,12.33
2023-03-30T21:36:05.213Z,12.36
2023-03-30T21:38:32.233Z,12.33
2023-03-30T21:41:07.564Z,12.38
2023-03-30T21:43:36.305Z,12.37
2023-03-30T21:46:14.058Z,12.28
2023-03-30T21:48:41.850Z,12.27
2023-03-30T21:51:14.168Z,12.24
2023-03-30T21:53:42.310Z,12.19
2023-03-30T21:56:09.516Z,12.23
2023-03-30T21:58:35.928Z,12.27
2023-03-30T22:01:11.751Z,12.32
2023-03-30T22:03:41.124Z,12.35
2023-03-30T22:06:09.693Z,12.30
2023-03-30T22:08:36.520Z,12.35
2023-03-30T22:11:06.680Z,12.29
2023-03-30T22:13:33.385Z,12.30
2023-03-30T22:16:06.491Z,12.25
2023-03-30T22:18:34.181Z,12.18
2023-03-30T22:21:03.055Z,12.13
2023-03-30T22:23:30.353Z,12.19
2023-03-30T22:25:57.432Z,12.27
2023-03-30T22:28:24.770Z,12.25
2023-03-30T22:30:51.214Z,12.17
2023-03-30T22:33:17.936Z,12.17
2023-03-30T22:35:46.593Z,12.20
2023-03-30T22:38:13.447Z,12.19
2023-03-30T22:40:41.803Z,12.20
2023-03-30T22:43:09.182Z,12.29
2023-03-30T22:45:35.860Z,12.22
2023-03-30T22:48:02.501Z,12.23
2023-03-30T22:50:29.646Z,12.13
2023-03-30T22:52:57.135Z,12.17
2023-03-30T22:55:24.196Z,12.19
2023-03-30T22:57:54.418Z,12.17
2023-03-30T23:00:21.809Z,12.08
2023-03-30T23:02:51.476Z,12.17
2023-03-30T23:05:20.947Z,12.13
2023-03-30T23:07:49.004Z,12.14
2023-03-30T23:10:19.043Z,12.16
2023-03-30T23:12:45.993Z,12.15
2023-03-30T23:15:13.530Z,12.13
2023-03-30T23:17:40.364Z,12.08
2023-03-30T23:20:10.348Z,12.21
2023-03-30T23:22:38.068Z,12.20
2023-03-30T23:25:05.929Z,12.13
2023-03-30T23:27:32.732Z,12.17
2023-03-30T23:29:59.094Z,12.16
2023-03-30T23:32:25.638Z,12.16
2023-03-30T23:34:52.029Z,12.15
2023-03-30T23:37:18.410Z,12.22
2023-03-30T23:39:44.888Z,12.11
2023-03-30T23:42:11.254Z,11.97
2023-03-30T23:44:37.575Z,12.02
2023-03-30T23:47:03.942Z,12.11
2023-03-30T23:49:31.147Z,12.12
2023-03-30T23:51:57.561Z,11.88
2023-03-30T23:54:23.860Z,11.83
2023-03-30T23:56:57.136Z,11.92
2023-03-30T23:59:24.583Z,11.86
